Time;durP1;ratioP1;P1;durP2;ratioP2;P2;SDS_P1;SDS_P2;PMS_P1;PMS_P2;Temp;Humidity;BMP_temperature;BMP_pressure;BME280_temperature;BME280_humidity;BME280_pressure;Samples;Min_cycle;Max_cycle;Signal;HPM_P1;HPM_P2
2023/01/04 00:01:32;;;;;;;26.43;21.07;;;;;;;9.58;100.00;79495.09;5072479;28;20181;-59
2023/01/04 00:04:00;;;;;;;25.40;21.23;;;;;;;9.65;100.00;79539.69;5072740;28;20674;-60
2023/01/04 00:06:27;;;;;;;27.80;21.53;;;;;;;9.57;100.00;79130.69;5072394;28;20189;-59
2023/01/04 00:08:54;;;;;;;25.77;21.63;;;;;;;9.58;100.00;78938.81;5072649;28;20548;-60
2023/01/04 00:11:23;;;;;;;23.97;21.07;;;;;;;9.61;100.00;78401.28;5072606;28;20571;-59
2023/01/04 00:13:51;;;;;;;28.73;22.30;;;;;;;9.39;100.00;79203.19;5072586;28;20196;-60
2023/01/04 00:16:19;;;;;;;24.73;21.40;;;;;;;9.38;100.00;79184.66;5072149;28;20209;-59
2023/01/04 00:18:46;;;;;;;23.90;21.50;;;;;;;9.33;100.00;79935.53;5071463;28;20219;-60
2023/01/04 00:21:17;;;;;;;29.30;21.13;;;;;;;9.35;100.00;79833.66;5072081;28;20184;-60
2023/01/04 00:23:45;;;;;;;36.93;22.20;;;;;;;9.27;100.00;80412.00;5072102;28;20189;-59
2023/01/04 00:26:14;;;;;;;25.40;21.70;;;;;;;9.10;100.00;81164.75;5072370;28;20260;-60
2023/01/04 00:28:41;;;;;;;25.87;21.73;;;;;;;9.20;100.00;80024.81;5072148;28;20185;-59
2023/01/04 00:31:10;;;;;;;27.80;22.47;;;;;;;9.22;100.00;77192.13;5072310;28;20639;-59
2023/01/04 00:33:38;;;;;;;28.90;22.73;;;;;;;9.24;100.00;74997.72;5071865;28;20641;-59
2023/01/04 00:36:06;;;;;;;27.70;21.73;;;;;;;9.26;100.00;70546.00;5071735;28;20204;-59
2023/01/04 00:38:35;;;;;;;25.10;22.20;;;;;;;9.15;100.00;66511.09;5072099;28;20204;-59
2023/01/04 00:41:04;;;;;;;30.77;24.10;;;;;;;9.36;100.00;64916.69;5071970;28;20189;-59
2023/01/04 00:43:31;;;;;;;32.27;22.17;;;;;;;9.25;100.00;65366.63;5071873;28;20192;-61
2023/01/04 00:46:00;;;;;;;27.83;22.80;;;;;;;9.26;100.00;62564.00;5071724;28;20191;-59
2023/01/04 00:48:27;;;;;;;30.43;23.20;;;;;;;9.33;100.00;61770.13;5071941;28;20636;-59
2023/01/04 00:50:54;;;;;;;32.57;24.10;;;;;;;9.18;100.00;60858.56;5071931;28;20658;-59
2023/01/04 00:53:21;;;;;;;29.00;23.20;;;;;;;9.14;100.00;59221.38;5071489;28;20192;-59
2023/01/04 00:55:49;;;;;;;28.77;23.00;;;;;;;9.27;100.00;58590.22;5071359;28;20181;-59
2023/01/04 00:58:16;;;;;;;25.57;22.30;;;;;;;9.29;100.00;59191.16;5071721;28;20659;-59
2023/01/04 01:00:43;;;;;;;30.50;22.70;;;;;;;9.26;100.00;59567.88;5071607;28;20208;-60
2023/01/04 01:03:10;;;;;;;31.97;23.07;;;;;;;9.22;100.00;57657.97;5071521;28;20287;-60
2023/01/04 01:05:36;;;;;;;30.23;24.03;;;;;;;9.23;100.00;58196.31;5071701;28;20648;-60
2023/01/04 01:08:23;;;;;;;29.97;23.37;;;;;;;9.22;100.00;59675.31;5071346;28;20185;-60
2023/01/04 01:10:52;;;;;;;30.03;23.33;;;;;;;9.09;100.00;58808.66;5071566;28;20184;-60
2023/01/04 01:13:19;;;;;;;33.43;23.40;;;;;;;9.15;100.00;54495.16;5071509;28;20180;-60
2023/01/04 01:15:46;;;;;;;32.90;25.00;;;;;;;9.16;100.00;53589.88;5071518;28;20185;-59
2023/01/04 01:18:12;;;;;;;29.50;24.10;;;;;;;9.17;100.00;52647.34;5071466;28;20658;-59
2023/01/04 01:20:43;;;;;;;34.87;24.60;;;;;;;9.10;100.00;53485.59;5071245;28;20195;-59
2023/01/04 01:23:13;;;;;;;35.00;25.50;;;;;;;9.25;100.00;55801.25;5071052;28;20184;-60
2023/01/04 01:25:40;;;;;;;33.37;25.43;;;;;;;9.29;100.00;57200.72;5071371;28;20195;-59
2023/01/04 01:28:09;;;;;;;29.97;24.83;;;;;;;9.26;100.00;59010.56;5070900;28;20188;-59
2023/01/04 01:30:40;;;;;;;32.30;25.43;;;;;;;9.22;100.00;58337.22;5071182;28;20188;-59
2023/01/04 01:33:07;;;;;;;32.87;26.27;;;;;;;9.19;100.00;57127.94;5070867;28;20232;-59
2023/01/04 01:35:34;;;;;;;32.07;26.57;;;;;;;9.17;100.00;56046.78;5070970;28;20188;-60
2023/01/04 01:38:01;;;;;;;33.93;25.87;;;;;;;9.06;100.00;53861.94;5070948;28;20209;-60
2023/01/04 01:40:28;;;;;;;31.63;25.67;;;;;;;8.84;100.00;51901.44;5071358;28;20184;-61
2023/01/04 01:42:55;;;;;;;36.43;26.70;;;;;;;8.96;100.00;50602.16;5071208;28;20646;-59
2023/01/04 01:45:28;;;;;;;33.83;26.40;;;;;;;9.06;100.00;49870.72;5071167;28;20184;-61
2023/01/04 01:48:01;;;;;;;34.47;27.03;;;;;;;8.97;100.00;49274.03;5070933;28;20188;-61
2023/01/04 01:50:32;;;;;;;35.87;27.63;;;;;;;9.11;100.00;50107.22;5070899;28;20193;-59
2023/01/04 01:53:01;;;;;;;39.90;26.83;;;;;;;8.97;100.00;49314.03;5071072;28;20671;-60
2023/01/04 01:55:30;;;;;;;35.23;27.30;;;;;;;8.97;100.00;47073.75;5071129;28;20196;-59
2023/01/04 01:57:58;;;;;;;35.50;26.73;;;;;;;9.04;100.00;45281.75;5071092;28;20286;-59
2023/01/04 02:00:28;;;;;;;37.40;27.13;;;;;;;8.96;100.00;47494.69;5071101;28;20185;-59
2023/01/04 02:03:03;;;;;;;34.83;26.53;;;;;;;8.90;100.00;48681.88;5071046;28;20211;-60
2023/01/04 02:05:32;;;;;;;37.70;26.97;;;;;;;8.84;100.00;46348.19;5070745;28;20192;-59
2023/01/04 02:08:02;;;;;;;40.57;27.43;;;;;;;8.77;100.00;42586.81;5070731;28;20191;-60
2023/01/04 02:10:30;;;;;;;36.83;27.23;;;;;;;8.64;100.00;38528.88;5070691;28;20193;-59
2023/01/04 02:12:59;;;;;;;36.87;27.30;;;;;;;8.56;100.00;34337.34;5070687;28;20188;-59
2023/01/04 02:15:32;;;;;;;40.57;29.53;;;;;;;8.51;100.00;28226.34;5070608;28;20196;-60
2023/01/04 02:18:08;;;;;;;40.53;28.20;;;;;;;8.53;100.00;24375.16;5070757;28;20212;-58
2023/01/04 02:20:44;;;;;;;43.63;27.90;;;;;;;8.43;100.00;21484.91;5070575;28;20180;-60
2023/01/04 02:23:42;;;;;;;39.87;28.07;;;;;;;8.49;100.00;19564.69;5070741;28;20192;-60
2023/01/04 02:26:57;;;;;;;36.20;27.33;;;;;;;8.49;100.00;13483.69;5070653;28;20185;-59
2023/01/04 02:29:50;;;;;;;41.57;28.13;;;;;;;8.40;100.00;14440.50;5070480;28;20195;-58
2023/01/04 02:32:27;;;;;;;37.50;27.17;;;;;;;8.30;100.00;15716.72;5070602;28;20185;-59
2023/01/04 02:35:03;;;;;;;36.00;26.57;;;;;;;8.20;100.00;16993.50;5070762;28;20215;-60
2023/01/04 02:37:39;;;;;;;42.30;29.27;;;;;;;8.15;100.00;17951.59;5070566;28;20208;-59
2023/01/04 02:40:17;;;;;;;44.70;29.77;;;;;;;7.82;100.00;16022.03;5070449;28;20181;-59
2023/01/04 02:45:38;;;;;;;46.33;27.77;;;;;;;8.02;100.00;12193.22;5074253;28;20180;-59
2023/01/04 02:50:54;;;;;;;46.13;28.80;;;;;;;7.90;100.00;8041.47;5052877;28;20196;-60
2023/01/04 02:53:25;;;;;;;42.80;28.07;;;;;;;7.85;100.00;4853.09;5073794;28;20184;-59
2023/01/04 02:56:04;;;;;;;42.20;28.60;;;;;;;7.84;100.00;1668.66;5074007;28;20544;-59
2023/01/04 02:58:48;;;;;;;53.10;30.67;;;;;;;7.81;100.00;3897.13;5074000;28;20208;-59
2023/01/04 03:07:26;;;;;;;39.47;25.13;;;;;;;8.06;100.00;-239.38;5073722;28;20253;-59
2023/01/04 03:10:00;;;;;;;37.33;24.37;;;;;;;8.37;100.00;-2783.88;5073508;28;20215;-60
2023/01/04 03:12:31;;;;;;;30.57;22.93;;;;;;;8.67;100.00;-2147.09;5073477;28;20188;-59
2023/01/04 03:15:03;;;;;;;27.63;22.27;;;;;;;8.96;100.00;720.97;5073416;28;20220;-59
2023/01/04 03:17:34;;;;;;;33.73;22.60;;;;;;;9.07;100.00;4549.78;5073381;28;20208;-60
2023/01/04 03:20:04;;;;;;;25.07;21.10;;;;;;;9.13;100.00;9022.63;5073214;28;20189;-60
2023/01/04 03:36:44;;;;;;;26.70;20.00;;;;;;;9.58;100.00;20246.59;5073041;28;20192;-60
2023/01/04 03:50:40;;;;;;;31.90;23.03;;;;;;;9.56;100.00;29888.97;5073018;28;20212;-59
2023/01/04 03:53:09;;;;;;;30.83;22.47;;;;;;;9.56;100.00;28923.41;5073004;28;20188;-59
2023/01/04 03:55:39;;;;;;;32.00;22.67;;;;;;;9.50;100.00;27954.84;5073076;28;20640;-59
2023/01/04 03:58:05;;;;;;;30.00;22.80;;;;;;;9.52;100.00;29243.13;5073042;28;20635;-59
2023/01/04 04:00:33;;;;;;;34.67;23.87;;;;;;;9.52;100.00;30208.69;5072823;28;20185;-61
2023/01/04 04:03:06;;;;;;;25.33;19.03;;;;;;;9.45;100.00;25380.06;5072824;28;20675;-59
2023/01/04 04:08:29;;;;;;;28.30;20.03;;;;;;;9.37;100.00;19917.88;5072573;28;20656;-59
2023/01/04 04:11:28;;;;;;;28.30;21.00;;;;;;;9.45;100.00;18958.41;5072648;28;20180;-59
2023/01/04 04:13:45;;;;;;;22.87;17.90;;;;;;;9.58;100.00;19604.69;5072408;28;20200;-60
2023/01/04 04:16:12;;;;;;;24.13;17.43;;;;;;;9.39;100.00;18635.50;5072592;28;20544;-60
2023/01/04 04:18:39;;;;;;;18.77;16.73;;;;;;;9.63;100.00;21532.94;5072092;28;20227;-61
2023/01/04 04:21:06;;;;;;;23.13;16.90;;;;;;;9.91;100.00;23150.81;5072499;28;20590;-59
2023/01/04 04:23:34;;;;;;;21.87;17.13;;;;;;;10.04;100.00;24442.66;5072089;28;20199;-59
2023/01/04 04:26:01;;;;;;;18.97;16.97;;;;;;;9.94;100.00;29264.88;5072272;28;20508;-59
2023/01/04 04:28:28;;;;;;;24.00;19.43;;;;;;;10.15;100.00;33144.00;5071986;28;20181;-59
2023/01/04 04:30:55;;;;;;;25.37;21.27;;;;;;;10.00;100.00;44439.38;5072246;28;20184;-60
2023/01/04 04:33:22;;;;;;;33.67;23.77;;;;;;;9.87;100.00;49284.53;5072064;28;20687;-60
2023/01/04 04:35:51;;;;;;;33.53;22.93;;;;;;;9.76;100.00;49922.84;5071880;28;20264;-60
2023/01/04 04:38:18;;;;;;;30.20;19.63;;;;;;;9.64;100.00;41825.97;5071699;28;20204;-60
2023/01/04 04:43:30;;;;;;;17.50;15.70;;;;;;;9.52;100.00;23455.47;5071957;28;20172;-59
2023/01/04 04:45:57;;;;;;;19.10;16.20;;;;;;;9.49;100.00;21848.38;5071822;28;20275;-60
2023/01/04 04:48:24;;;;;;;18.83;16.87;;;;;;;9.71;100.00;23463.31;5072049;28;20532;-59
2023/01/04 04:50:51;;;;;;;19.73;15.17;;;;;;;9.58;100.00;24422.09;5071645;28;20199;-60
2023/01/04 04:53:18;;;;;;;19.47;16.53;;;;;;;9.77;100.00;24751.72;5071923;28;20647;-60
2023/01/04 04:55:46;;;;;;;21.63;18.00;;;;;;;9.74;100.00;27323.28;5071854;28;20654;-61
2023/01/04 04:58:13;;;;;;;18.97;16.60;;;;;;;9.76;100.00;28611.53;5071776;28;20670;-60
2023/01/04 05:00:40;;;;;;;18.17;16.47;;;;;;;9.67;100.00;30216.34;5071563;28;20180;-60
2023/01/04 05:03:07;;;;;;;18.97;17.03;;;;;;;9.82;100.00;32157.47;5071347;28;20268;-59
2023/01/04 05:05:34;;;;;;;20.30;17.10;;;;;;;9.85;100.00;32481.78;5071434;28;20195;-59
2023/01/04 05:08:01;;;;;;;18.23;16.30;;;;;;;9.88;100.00;34417.69;5071378;28;20230;-59
2023/01/04 05:10:28;;;;;;;19.23;16.67;;;;;;;9.91;100.00;35064.94;5071757;28;20193;-60
2023/01/04 05:13:01;;;;;;;21.03;16.50;;;;;;;9.90;100.00;36031.84;5070080;28;20194;-61
2023/01/04 05:15:30;;;;;;;19.17;16.67;;;;;;;9.89;100.00;35708.53;5071343;28;20276;-59
2023/01/04 05:17:57;;;;;;;18.30;16.40;;;;;;;9.87;100.00;35384.69;5071649;28;20211;-60
2023/01/04 05:20:24;;;;;;;19.90;16.30;;;;;;;9.90;100.00;35709.19;5071579;28;20541;-60
2023/01/04 05:22:51;;;;;;;18.87;16.90;;;;;;;9.97;100.00;37327.38;5071241;28;20196;-59
2023/01/04 05:25:18;;;;;;;18.67;16.63;;;;;;;9.71;100.00;34084.81;5071458;28;20185;-61
2023/01/04 05:27:45;;;;;;;19.60;17.47;;;;;;;9.77;100.00;33766.09;5071497;28;20598;-60
2023/01/04 05:33:01;;;;;;;25.27;16.43;;;;;;;10.00;100.00;37006.56;5071064;28;20316;-59
2023/01/04 05:35:28;;;;;;;18.27;15.00;;;;;;;10.04;100.00;41208.63;5071035;28;20250;-60
2023/01/04 05:37:56;;;;;;;16.97;15.27;;;;;;;9.85;100.00;42811.22;5070920;28;20200;-60
2023/01/04 05:40:23;;;;;;;17.07;15.17;;;;;;;10.00;100.00;39266.97;5071247;28;20185;-59
2023/01/04 05:42:50;;;;;;;19.00;17.07;;;;;;;9.98;100.00;40235.13;5071316;28;20185;-60
2023/01/04 05:45:19;;;;;;;20.83;17.07;;;;;;;10.11;100.00;42507.03;5071119;28;20200;-60
2023/01/04 05:47:49;;;;;;;18.70;16.30;;;;;;;10.20;100.00;45425.66;5071190;28;20235;-60
2023/01/04 05:50:16;;;;;;;17.40;15.50;;;;;;;10.23;100.00;46723.25;5069778;28;20234;-58
2023/01/04 05:52:43;;;;;;;18.03;16.27;;;;;;;10.25;100.00;51586.94;5070951;28;20192;-60
2023/01/04 05:55:10;;;;;;;19.23;17.23;;;;;;;10.20;100.00;53853.41;5071206;28;20548;-60
2023/01/04 05:57:37;;;;;;;20.03;17.07;;;;;;;10.30;100.00;57435.13;5071408;28;20702;-59
2023/01/04 06:00:06;;;;;;;18.97;16.97;;;;;;;10.38;100.00;62971.56;5070787;28;20200;-59
2023/01/04 06:02:34;;;;;;;22.17;18.30;;;;;;;10.30;100.00;65893.22;5070825;28;20196;-58
2023/01/04 06:05:01;;;;;;;20.20;18.00;;;;;;;10.33;100.00;67852.28;5071054;28;20563;-58
2023/01/04 06:07:29;;;;;;;17.30;15.37;;;;;;;10.35;100.00;59064.78;5070793;28;20188;-59
2023/01/04 06:09:56;;;;;;;17.57;15.70;;;;;;;10.47;100.00;56152.25;5070777;28;20185;-61
2023/01/04 06:12:23;;;;;;;18.23;16.43;;;;;;;10.73;100.00;56826.75;5070589;28;20204;-59
2023/01/04 06:14:50;;;;;;;31.70;22.73;;;;;;;10.73;100.00;75408.31;5071025;28;20606;-60
2023/01/04 06:17:17;;;;;;;28.33;22.03;;;;;;;10.54;100.00;111847.69;5074310;28;20187;-60
2023/01/04 06:19:45;;;;;;;38.23;24.03;;;;;;;10.29;100.00;109819.16;5074444;28;20189;-61
2023/01/04 06:22:12;;;;;;;38.20;27.67;;;;;;;10.48;100.00;114147.41;5074620;28;20192;-60
2023/01/04 06:24:39;;;;;;;41.67;27.17;;;;;;;10.37;100.00;131871.16;5074770;28;20207;-60
2023/01/04 06:27:06;;;;;;;44.77;27.80;;;;;;;10.18;100.00;134518.59;5074643;28;20185;-60
2023/01/04 06:29:33;;;;;;;46.33;29.30;;;;;;;10.12;100.00;129964.28;5074589;28;20208;-60
2023/01/04 06:32:00;;;;;;;44.77;28.37;;;;;;;10.05;100.00;114726.16;5074482;28;20654;-60
2023/01/04 06:34:27;;;;;;;46.30;27.57;;;;;;;10.39;100.00;124717.31;5074050;28;20229;-59
2023/01/04 06:36:55;;;;;;;56.70;29.53;;;;;;;10.77;100.00;143900.31;5074188;28;20283;-59
2023/01/04 06:39:22;;;;;;;39.07;28.13;;;;;;;11.15;100.00;148843.75;5074054;28;20212;-59
2023/01/04 06:41:49;;;;;;;41.17;27.80;;;;;;;11.60;100.00;148956.28;5074662;28;20189;-60
2023/01/04 06:44:15;;;;;;;43.23;28.23;;;;;;;11.88;100.00;149027.19;5074301;28;20587;-59
2023/01/04 06:46:42;;;;;;;41.97;27.50;;;;;;;12.20;100.00;149106.94;5074097;28;20181;-61
2023/01/04 06:49:09;;;;;;;45.63;28.57;;;;;;;12.49;100.00;149177.81;5074171;28;20559;-60
2023/01/04 06:51:36;;;;;;;56.33;30.83;;;;;;;12.49;100.00;149177.81;5073882;28;20208;-60
2023/01/04 06:54:04;;;;;;;39.37;27.67;;;;;;;12.25;100.00;149119.59;5089952;28;20214;-61
2023/01/04 06:56:32;;;;;;;42.07;26.63;;;;;;;12.44;100.00;149166.41;5094271;28;20713;-59
2023/01/04 06:58:59;;;;;;;37.13;26.73;;;;;;;12.65;100.00;149218.31;5077800;28;20209;-67
2023/01/04 07:01:26;;;;;;;42.37;26.00;;;;;;;13.07;100.00;149323.44;5090215;28;20192;-61
2023/01/04 07:03:53;;;;;;;44.27;26.83;;;;;;;13.59;100.00;149453.94;5093459;28;20646;-61
2023/01/04 07:06:20;;;;;;;38.43;24.67;;;;;;;14.23;100.00;149613.63;5093086;28;20199;-62
2023/01/04 07:08:47;;;;;;;39.53;25.23;;;;;;;14.46;100.00;149672.03;5084866;28;20618;-61
2023/01/04 07:11:15;;;;;;;46.70;26.20;;;;;;;15.25;100.00;149869.84;5090917;28;20196;-62
2023/01/04 07:13:42;;;;;;;39.73;26.90;;;;;;;15.09;100.00;149831.81;5092813;28;20202;-62
2023/01/04 07:16:09;;;;;;;46.70;27.87;;;;;;;15.35;100.00;149896.53;5093670;28;20579;-61
2023/01/04 07:18:37;;;;;;;43.83;27.20;;;;;;;15.35;100.00;149895.25;5093532;28;20215;-62
2023/01/04 07:21:04;;;;;;;50.87;29.17;;;;;;;15.68;100.00;149979.03;5093330;28;20195;-62
2023/01/04 07:23:31;;;;;;;48.93;27.50;;;;;;;16.32;100.00;150138.97;5093352;28;20275;-61
2023/01/04 07:26:01;;;;;;;46.70;29.13;;;;;;;16.37;100.00;150151.69;5093318;28;20196;-61
2023/01/04 07:31:13;;;;;;;48.07;27.90;;;;;;;16.57;100.00;150201.19;5093443;28;20213;-61
2023/01/04 07:33:40;;;;;;;50.40;27.00;;;;;;;16.46;100.00;150174.53;5091762;28;20235;-62
2023/01/04 07:36:08;;;;;;;38.90;26.30;;;;;;;16.59;100.00;150206.34;5073717;28;20307;-61
2023/01/04 07:38:35;;;;;;;48.53;27.60;;;;;;;16.41;100.00;150163.13;5072603;28;20205;-60
2023/01/04 07:41:03;;;;;;;44.37;27.10;;;;;;;16.14;100.00;150094.53;5073129;28;20208;-61
2023/01/04 07:43:31;;;;;;;33.53;24.47;;;;;;;15.76;100.00;149998.06;5072444;28;20713;-62
2023/01/04 07:45:58;;;;;;;45.33;26.53;;;;;;;15.39;100.00;149905.41;5092621;28;20200;-61
2023/01/04 07:48:25;;;;;;;42.37;27.67;;;;;;;14.64;100.00;149717.63;5092604;28;20192;-62
2023/01/04 07:50:51;;;;;;;34.90;25.47;;;;;;;14.17;100.00;149599.72;5094809;28;20725;-63
2023/01/04 07:53:26;;;;;;;41.20;29.50;;;;;;;13.98;100.00;149551.53;5093203;28;20196;-64
2023/01/04 07:55:57;;;;;;;44.47;31.07;;;;;;;13.83;100.00;149514.81;5092117;28;20190;-63
2023/01/04 07:58:24;;;;;;;41.63;30.40;;;;;;;13.81;100.00;149509.72;5093074;28;20701;-63
2023/01/04 08:00:52;;;;;;;47.30;32.40;;;;;;;13.68;100.00;149476.75;5092942;28;20189;-64
2023/01/04 08:03:19;;;;;;;66.90;34.50;;;;;;;13.56;100.00;149446.34;5092816;28;20203;-62
2023/01/04 08:05:46;;;;;;;46.07;33.50;;;;;;;13.58;100.00;149451.41;5093194;28;20188;-62
2023/01/04 08:08:13;;;;;;;67.67;34.73;;;;;;;13.49;100.00;149428.63;5092952;28;20186;-63
2023/01/04 08:10:40;;;;;;;43.03;28.27;;;;;;;13.57;100.00;149448.91;5090483;28;20207;-63
2023/01/04 08:13:07;;;;;;;50.27;30.10;;;;;;;13.38;100.00;149402.00;5091586;28;20291;-62
2023/01/04 08:15:34;;;;;;;110.17;32.13;;;;;;;13.50;100.00;149431.13;5092972;28;20275;-63
2023/01/04 08:18:02;;;;;;;50.47;31.80;;;;;;;13.36;100.00;149395.69;5092668;28;20181;-62
2023/01/04 08:20:29;;;;;;;45.77;33.03;;;;;;;13.32;100.00;149386.84;5092135;28;20192;-64
2023/01/04 08:22:56;;;;;;;49.23;30.57;;;;;;;13.31;100.00;149383.00;5092206;28;20191;-64
2023/01/04 08:25:23;;;;;;;46.03;29.07;;;;;;;13.33;100.00;149389.34;5092497;28;20658;-63
2023/01/04 08:27:50;;;;;;;35.83;25.30;;;;;;;13.50;100.00;149431.13;5092161;28;20195;-64
2023/01/04 08:30:17;;;;;;;40.10;27.30;;;;;;;13.90;100.00;149532.53;5092268;28;20184;-64
2023/01/04 08:32:44;;;;;;;34.13;21.23;;;;;;;13.57;100.00;149448.91;5092164;28;20244;-64
2023/01/04 08:35:12;;;;;;;18.13;14.30;;;;;;;12.80;100.00;149256.31;5092236;28;20188;-62
2023/01/04 08:37:39;;;;;;;24.97;16.53;;;;;;;13.06;100.00;149320.91;5091997;28;20215;-63
2023/01/04 08:40:07;;;;;;;23.50;17.53;;;;;;;13.32;100.00;149386.84;5091648;28;20208;-63
2023/01/04 08:42:34;;;;;;;15.17;13.73;;;;;;;13.36;100.00;149396.97;5092816;28;20210;-64
2023/01/04 08:45:01;;;;;;;16.87;14.20;;;;;;;13.41;100.00;149408.38;5092501;28;20639;-64
2023/01/04 08:47:28;;;;;;;16.23;14.63;;;;;;;13.56;100.00;149447.63;5091992;28;20192;-63
2023/01/04 08:49:55;;;;;;;16.47;14.93;;;;;;;13.66;100.00;149471.72;5093136;28;20203;-63
2023/01/04 08:52:23;;;;;;;17.83;15.80;;;;;;;13.76;100.00;149495.75;5092050;28;20627;-62
2023/01/04 08:54:50;;;;;;;17.60;15.43;;;;;;;13.70;100.00;149483.13;5092257;28;20551;-63
2023/01/04 08:57:17;;;;;;;18.03;15.60;;;;;;;13.70;100.00;149483.13;5091928;28;20570;-63
2023/01/04 08:59:44;;;;;;;15.20;14.00;;;;;;;13.77;100.00;149498.31;5092174;28;20663;-64
2023/01/04 09:02:20;;;;;;;15.80;14.23;;;;;;;13.72;100.00;149488.16;5091703;28;20180;-62
2023/01/04 09:04:47;;;;;;;13.83;12.47;;;;;;;13.71;100.00;149484.34;5092026;28;20184;-64
2023/01/04 09:07:14;;;;;;;17.50;13.17;;;;;;;13.66;100.00;149471.72;5091811;28;20341;-63
2023/01/04 09:09:43;;;;;;;15.13;13.47;;;;;;;13.46;100.00;149422.28;5091884;28;20215;-62
2023/01/04 09:12:10;;;;;;;18.87;13.13;;;;;;;13.43;100.00;149414.69;5091608;28;20195;-62
2023/01/04 09:14:37;;;;;;;15.40;14.10;;;;;;;13.26;100.00;149371.63;5091606;28;20279;-62
2023/01/04 09:17:04;;;;;;;20.83;14.73;;;;;;;13.21;100.00;149360.22;5091813;28;20556;-62
2023/01/04 09:19:31;;;;;;;18.57;14.73;;;;;;;13.08;100.00;149325.94;5091493;28;20215;-63
2023/01/04 09:21:58;;;;;;;15.37;13.77;;;;;;;12.89;100.00;149279.13;5091414;28;20676;-64
2023/01/04 09:24:25;;;;;;;16.90;14.50;;;;;;;12.82;100.00;149261.34;5091500;28;20195;-64
2023/01/04 09:26:54;;;;;;;15.60;14.03;;;;;;;12.98;100.00;149300.66;5091627;28;20181;-64
2023/01/04 09:29:21;;;;;;;15.13;13.73;;;;;;;13.02;100.00;149312.06;5091244;28;20180;-64
2023/01/04 09:31:47;;;;;;;14.93;13.63;;;;;;;12.86;100.00;149271.50;5091747;28;20184;-64
2023/01/04 09:34:14;;;;;;;14.00;12.80;;;;;;;12.88;100.00;149275.31;5091121;28;20227;-64
2023/01/04 09:36:41;;;;;;;14.60;12.63;;;;;;;12.93;100.00;149289.25;5091321;28;20378;-63
2023/01/04 09:39:08;;;;;;;14.63;13.37;;;;;;;12.94;100.00;149291.78;5091065;28;20711;-64
2023/01/04 09:41:38;;;;;;;16.77;13.50;;;;;;;12.98;100.00;149301.91;5091226;28;20184;-63
2023/01/04 09:44:21;;;;;;;14.17;12.93;;;;;;;13.09;100.00;149329.78;5091403;28;20180;-64
2023/01/04 09:46:52;;;;;;;17.53;12.63;;;;;;;13.18;100.00;149351.34;5091116;28;20188;-63
2023/01/04 09:49:23;;;;;;;13.87;12.57;;;;;;;13.17;100.00;149350.06;5091846;28;20538;-63
2023/01/04 09:52:00;;;;;;;18.80;11.90;;;;;;;12.83;100.00;149265.19;5095540;28;20184;-63
2023/01/04 09:54:32;;;;;;;16.30;12.73;;;;;;;12.82;100.00;149261.34;5095321;28;20554;-62
2023/01/04 09:57:00;;;;;;;13.30;12.07;;;;;;;12.82;100.00;149261.34;5095481;28;20222;-64
2023/01/04 09:59:31;;;;;;;13.87;12.47;;;;;;;12.49;100.00;149177.81;5095005;28;20207;-63
2023/01/04 10:02:01;;;;;;;12.70;11.73;;;;;;;12.73;100.00;149238.59;5095538;28;20264;-63
2023/01/04 10:04:41;;;;;;;12.60;11.60;;;;;;;12.66;100.00;149222.13;5095736;28;20543;-64
2023/01/04 10:07:17;;;;;;;15.47;12.43;;;;;;;12.66;100.00;149220.84;5095534;28;20207;-64
2023/01/04 10:09:44;;;;;;;17.83;12.77;;;;;;;12.75;100.00;149243.66;5095687;28;20202;-64
2023/01/04 10:12:25;;;;;;;12.97;11.83;;;;;;;12.45;100.00;149168.94;5095041;28;20600;-64
2023/01/04 10:15:12;;;;;;;14.07;12.73;;;;;;;12.33;100.00;149138.56;5095010;28;20190;-62
2023/01/04 10:17:56;;;;;;;14.70;12.20;;;;;;;12.34;100.00;149142.41;5095195;28;20283;-65
2023/01/04 10:20:53;;;;;;;13.77;11.70;;;;;;;12.22;100.00;149111.97;5094912;28;20215;-63
2023/01/04 10:23:33;;;;;;;12.07;11.07;;;;;;;11.91;100.00;149033.53;5094583;28;20224;-63
2023/01/04 10:26:10;;;;;;;12.57;11.27;;;;;;;11.50;100.00;148930.97;5094911;28;20575;-62
2023/01/04 10:28:47;;;;;;;11.97;10.93;;;;;;;11.56;100.00;148944.91;5094650;28;20187;-64
2023/01/04 10:31:20;;;;;;;11.80;10.73;;;;;;;11.50;100.00;148930.97;5094551;28;20191;-63
2023/01/04 10:33:49;;;;;;;13.17;12.03;;;;;;;11.53;100.00;148937.34;5076864;28;20267;-64
2023/01/04 10:36:19;;;;;;;23.90;13.73;;;;;;;11.80;100.00;149005.66;5094756;28;20180;-63
2023/01/04 10:38:50;;;;;;;11.43;10.30;;;;;;;12.06;100.00;149071.47;5094553;28;20650;-63
2023/01/04 10:41:25;;;;;;;10.13;9.20;;;;;;;11.88;100.00;149027.19;5094837;28;20595;-63
2023/01/04 10:44:05;;;;;;;10.47;9.73;;;;;;;11.86;100.00;149020.88;5094279;28;20187;-63
2023/01/04 10:46:42;;;;;;;10.20;9.27;;;;;;;11.96;100.00;149044.94;5094757;28;20191;-63
2023/01/04 10:49:15;;;;;;;10.10;9.10;;;;;;;12.08;100.00;149076.56;5094480;28;20180;-64
2023/01/04 10:51:49;;;;;;;10.83;9.03;;;;;;;12.08;100.00;149076.56;5076674;28;20195;-65
2023/01/04 10:54:25;;;;;;;8.83;8.10;;;;;;;11.94;100.00;149039.84;5094289;28;20188;-64
2023/01/04 10:56:58;;;;;;;9.57;8.60;;;;;;;11.94;100.00;149041.13;5094196;28;20195;-63
2023/01/04 10:59:33;;;;;;;9.13;8.47;;;;;;;12.15;100.00;149093.00;5093899;28;20257;-66
2023/01/04 11:02:09;;;;;;;10.17;8.83;;;;;;;12.15;100.00;149094.25;5093232;28;20184;-62
2023/01/04 11:04:41;;;;;;;10.30;8.27;;;;;;;12.14;100.00;149091.72;5093721;28;20193;-64
2023/01/04 11:07:13;;;;;;;13.10;7.83;;;;;;;12.22;100.00;149111.97;5093673;28;20283;-64
2023/01/04 11:09:47;;;;;;;10.37;8.10;;;;;;;12.33;100.00;149138.56;5093971;28;20623;-63
2023/01/04 11:12:17;;;;;;;9.60;8.67;;;;;;;12.54;100.00;149191.75;5093723;28;20279;-62
2023/01/04 11:14:44;;;;;;;8.70;7.83;;;;;;;12.51;100.00;149182.88;5093921;28;20635;-63
2023/01/04 11:17:13;;;;;;;13.47;8.00;;;;;;;12.43;100.00;149163.91;5093433;28;20195;-62
2023/01/04 11:19:41;;;;;;;9.50;8.63;;;;;;;12.48;100.00;149176.53;5093222;28;20598;-63
2023/01/04 11:22:14;;;;;;;8.17;7.47;;;;;;;12.50;100.00;149180.34;5093612;28;20183;-63
2023/01/04 11:24:44;;;;;;;8.07;7.50;;;;;;;12.55;100.00;149194.28;5094126;28;20185;-63
2023/01/04 11:27:16;;;;;;;7.87;7.23;;;;;;;12.68;100.00;149225.94;5075289;28;20290;-64
2023/01/04 11:29:50;;;;;;;8.97;8.27;;;;;;;12.76;100.00;149246.19;5093377;28;20184;-63
2023/01/04 11:32:34;;;;;;;14.57;8.90;;;;;;;12.78;100.00;149252.50;5093213;28;20184;-64
2023/01/04 11:35:01;;;;;;;10.63;7.87;;;;;;;12.79;100.00;149253.78;5052828;28;20181;-63
2023/01/04 11:37:32;;;;;;;12.63;7.90;;;;;;;12.83;100.00;149265.19;5054944;28;20186;-63
2023/01/04 11:40:23;;;;;;;8.60;7.87;;;;;;;12.85;100.00;149269.00;5053094;28;20561;-63
2023/01/04 11:42:52;;;;;;;7.87;7.47;;;;;;;12.61;100.00;149208.19;5052806;28;20189;-62
2023/01/04 11:45:22;;;;;;;8.83;8.23;;;;;;;12.36;100.00;149147.44;5053005;28;20189;-64
2023/01/04 11:47:52;;;;;;;12.47;8.83;;;;;;;12.24;100.00;149117.06;5051780;28;20212;-63
2023/01/04 11:50:41;;;;;;;11.83;9.83;;;;;;;12.24;100.00;149117.06;5053012;28;20184;-63
2023/01/04 11:53:30;;;;;;;10.67;8.70;;;;;;;11.85;100.00;149018.34;5048525;28;20256;-62
2023/01/04 11:56:14;;;;;;;10.07;9.10;;;;;;;11.66;100.00;148970.22;5052460;28;20632;-63
2023/01/04 11:58:41;;;;;;;12.13;9.00;;;;;;;11.96;100.00;149046.19;5051391;28;20682;-63
2023/01/04 12:01:20;;;;;;;9.33;8.83;;;;;;;12.14;100.00;149091.72;5052631;28;20319;-63
2023/01/04 12:03:48;;;;;;;9.67;8.83;;;;;;;12.21;100.00;149108.22;5052304;28;20251;-63
2023/01/04 12:06:19;;;;;;;8.60;8.10;;;;;;;12.19;100.00;149104.41;5052301;28;20190;-62
2023/01/04 12:08:47;;;;;;;9.23;8.40;;;;;;;12.21;100.00;149108.22;5052698;28;20185;-63
2023/01/04 12:11:20;;;;;;;9.20;8.50;;;;;;;11.82;100.00;149010.75;5052108;28;20181;-62